Airfield :
LOGIN :

Register | Disclaimer

   EN    FR    IT 

 










Legend :    VFR   Marginal VFR   IFR   Intensive IFR   Very Intensive IFR
Visi :
Ceiling :
>= 8 km
>= 3000ft
5 to 8 km
1000 to 3000 ft
1500m to 5 km
500 to 1000 ft
800 to 1500m
200 to 500 ft
< 800m
< 200 ft
Symbols :   Thunderstorms  Fog  Heavy snow  Heavy precipitations  Wind > 20 kt
SIGMETs :     Misc.  Thunderstorms  Icing  Turbulence  Mountain Waves  Volcanic Ashes







- Airport Elevation : 23 ft
- IATA code : XFW


EDHI - Hamburg Finkenwerder

CURRENT METAR :
  • 180650Z 11004KT 080V170 9999 FEW044 OVC052 02/00 Q1020

EXPIRED METARs :
  • 180620Z 13006KT 080V160 9999 SCT048 02/00 Q1020
  • 180550Z 12003KT 020V190 9999 FEW020 BKN061 02/00 Q1020
  • 180520Z 13006KT 110V170 9000 FEW019 BKN063 01/00 Q1019
  • 180450Z 13004KT 080V170 9000 FEW017 BKN062 01/00 Q1019
  • 180420Z 14005KT 9999 FEW017 BKN076 01/00 Q1019

TAF TAF EDHI
Valid from the 18 at 06:00 until the 18 at 15:00 UTC


180512Z 1806/1815 14005KT 8000 SCT030 BKN040
No reported NOTAMs for that airfield.



MET'MAP, your aeronautical weather chart ! - Copyright ORBIFLY December 2007 - Disclaimer

ORBIFLY MET'MAP TEAM :

Programming & Development : Alexandra Zaïnal
Concept & Development : Baudouin d'Aumeries
Co-Development & Prog : Marc-Olivier Méhu
Technical & hardware support : Manuel Goepfert

Contact : metmap@orbifly.com




SOURCES & CREDITS :

   NOAA